Time;durP1;ratioP1;P1;durP2;ratioP2;P2;SDS_P1;SDS_P2;PMS_P1;PMS_P2;Temp;Humidity;BMP_temperature;BMP_pressure;BME280_temperature;BME280_humidity;BME280_pressure;Samples;Min_cycle;Max_cycle;Signal;HPM_P1;HPM_P2
2022/12/12 00:01:44;;;;;;;27.27;13.87;;;-2.60;99.90;;;;;;5014037;28;20250;-69
2022/12/12 00:04:10;;;;;;;25.03;11.90;;;-2.60;99.90;;;;;;5013485;28;20636;-70
2022/12/12 00:06:36;;;;;;;31.30;15.23;;;-2.60;99.90;;;;;;5013871;28;20419;-69
2022/12/12 00:09:02;;;;;;;30.27;13.77;;;-2.60;99.90;;;;;;5013684;28;20922;-69
2022/12/12 00:11:28;;;;;;;30.03;13.67;;;-2.60;99.90;;;;;;5012909;28;20500;-69
2022/12/12 00:13:54;;;;;;;31.77;13.13;;;-2.60;99.90;;;;;;5013051;28;20522;-69
2022/12/12 00:16:21;;;;;;;1.77;0.90;;;-2.60;99.90;;;;;;5013720;28;20422;-69
2022/12/12 00:18:47;;;;;;;26.40;12.07;;;-2.60;99.90;;;;;;5012831;28;20441;-69
2022/12/12 00:21:19;;;;;;;37.40;15.27;;;-2.60;99.90;;;;;;5025102;28;20972;-69
2022/12/12 00:23:45;;;;;;;28.93;12.50;;;-2.50;99.90;;;;;;5013080;28;20202;-69
2022/12/12 00:26:39;;;;;;;1.87;1.00;;;-2.50;99.90;;;;;;5013123;28;20603;-69
2022/12/12 00:29:06;;;;;;;25.90;12.10;;;-2.60;99.90;;;;;;5005215;28;20430;-69
2022/12/12 00:31:31;;;;;;;38.40;15.57;;;-2.50;99.90;;;;;;5024121;28;20413;-69
2022/12/12 00:33:57;;;;;;;29.47;13.40;;;-2.50;99.90;;;;;;5019786;28;20422;-69
2022/12/12 00:36:27;;;;;;;35.10;15.40;;;-2.60;99.90;;;;;;5012963;28;20175;-69
2022/12/12 00:38:53;;;;;;;29.10;14.53;;;-2.50;99.90;;;;;;5013368;28;20441;-69
2022/12/12 00:41:19;;;;;;;32.23;12.40;;;-2.60;99.90;;;;;;5000197;28;20462;-69
2022/12/12 00:43:44;;;;;;;30.27;13.73;;;-2.60;99.90;;;;;;5012799;28;20906;-69
2022/12/12 00:46:14;;;;;;;28.17;14.83;;;-2.60;99.90;;;;;;5000078;28;20426;-69
2022/12/12 00:48:40;;;;;;;31.73;13.43;;;-2.60;99.90;;;;;;5012220;28;20198;-68
2022/12/12 00:51:08;;;;;;;1.40;0.63;;;-2.60;99.90;;;;;;5007285;28;20418;-69
2022/12/12 00:53:35;;;;;;;37.13;13.43;;;-2.60;99.90;;;;;;5021854;28;20267;-68
2022/12/12 00:56:00;;;;;;;34.80;12.93;;;-2.70;99.90;;;;;;5018201;28;20428;-68
2022/12/12 00:58:26;;;;;;;30.67;14.20;;;-2.70;99.90;;;;;;5010825;28;20422;-68
2022/12/12 01:00:52;;;;;;;29.90;13.47;;;-2.70;99.90;;;;;;5012795;28;20242;-68
2022/12/12 01:03:19;;;;;;;31.40;13.90;;;-2.80;99.90;;;;;;5011175;28;20190;-68
2022/12/12 01:05:44;;;;;;;27.97;15.07;;;-2.80;99.90;;;;;;5012311;28;20462;-68
2022/12/12 01:08:10;;;;;;;2.07;0.93;;;-2.80;99.90;;;;;;5012309;28;20454;-68
2022/12/12 01:10:36;;;;;;;1.57;0.97;;;-2.80;99.90;;;;;;5012724;28;20183;-68
2022/12/12 01:13:02;;;;;;;21.57;10.47;;;-2.80;99.90;;;;;;5011802;28;20469;-68
2022/12/12 01:15:28;;;;;;;25.23;12.93;;;-2.90;99.90;;;;;;5012510;28;20209;-68
2022/12/12 01:17:54;;;;;;;34.53;14.40;;;-2.90;99.90;;;;;;5011636;28;20485;-68
2022/12/12 01:20:23;;;;;;;27.17;12.73;;;-2.90;99.90;;;;;;5018620;28;20296;-68
2022/12/12 01:22:50;;;;;;;31.97;13.90;;;-3.00;99.90;;;;;;5016498;28;20278;-68
2022/12/12 01:25:16;;;;;;;5.90;2.30;;;-3.00;99.90;;;;;;5012469;28;20429;-68
2022/12/12 01:27:44;;;;;;;29.13;12.80;;;-3.00;99.90;;;;;;5012029;28;20432;-68
2022/12/12 01:30:15;;;;;;;27.70;13.33;;;-3.10;99.90;;;;;;4997308;28;20426;-68
2022/12/12 01:32:40;;;;;;;30.80;13.83;;;-3.10;99.90;;;;;;5024424;28;20418;-68
2022/12/12 01:35:07;;;;;;;32.00;14.50;;;-3.10;99.90;;;;;;5011804;28;20902;-68
2022/12/12 01:37:37;;;;;;;35.93;14.90;;;-3.10;99.90;;;;;;5011857;28;20191;-68
2022/12/12 01:40:07;;;;;;;28.90;12.97;;;-3.20;99.90;;;;;;5012238;28;20774;-68
2022/12/12 01:42:34;;;;;;;28.90;14.10;;;-3.20;99.90;;;;;;5010830;28;20540;-68
2022/12/12 01:44:59;;;;;;;31.83;13.87;;;-3.20;99.90;;;;;;5011712;28;20458;-68
2022/12/12 01:47:25;;;;;;;36.23;14.03;;;-3.30;99.90;;;;;;5011900;28;20470;-68
2022/12/12 01:50:00;;;;;;;30.97;13.20;;;-3.30;99.90;;;;;;5011440;28;20625;-68
2022/12/12 01:52:34;;;;;;;34.80;14.47;;;-3.30;99.90;;;;;;5011266;28;20491;-68
2022/12/12 01:55:04;;;;;;;31.57;12.67;;;-3.40;99.90;;;;;;5011678;28;20463;-68
2022/12/12 01:57:36;;;;;;;23.17;11.20;;;-3.40;99.90;;;;;;5011012;28;20457;-68
2022/12/12 02:00:05;;;;;;;33.40;14.67;;;-3.50;99.90;;;;;;5011396;28;20422;-68
2022/12/12 02:02:31;;;;;;;50.73;15.10;;;-3.60;99.90;;;;;;5010841;28;21018;-68
2022/12/12 02:05:01;;;;;;;26.30;13.17;;;-3.70;99.90;;;;;;5010890;28;20557;-68
2022/12/12 02:07:27;;;;;;;25.93;13.23;;;-3.70;99.90;;;;;;5011452;28;20225;-68
2022/12/12 02:09:52;;;;;;;1.50;0.73;;;-3.80;99.90;;;;;;5011303;28;20511;-68
2022/12/12 02:12:18;;;;;;;23.53;10.97;;;-3.80;99.90;;;;;;5011248;28;20195;-68
2022/12/12 02:14:50;;;;;;;33.40;12.00;;;-3.90;99.90;;;;;;5010948;28;20185;-68
2022/12/12 02:17:34;;;;;;;21.30;10.90;;;-3.90;99.90;;;;;;5011609;28;20276;-68
2022/12/12 02:20:29;;;;;;;24.27;10.73;;;-4.00;99.90;;;;;;5013936;28;20430;-68
2022/12/12 02:23:07;;;;;;;1.57;0.77;;;-4.00;99.90;;;;;;5016154;28;20540;-68
2022/12/12 02:25:57;;;;;;;26.63;10.87;;;-4.10;99.90;;;;;;5011611;28;20500;-68
2022/12/12 02:28:47;;;;;;;28.93;12.43;;;-4.10;99.90;;;;;;5011417;28;20422;-68
2022/12/12 02:31:30;;;;;;;27.47;11.40;;;-4.20;99.90;;;;;;5021916;28;20947;-68
2022/12/12 02:34:04;;;;;;;27.33;12.30;;;-4.20;99.90;;;;;;5014334;28;20433;-68
2022/12/12 02:36:35;;;;;;;23.07;12.23;;;-4.30;99.90;;;;;;5010789;28;20421;-68
2022/12/12 02:39:26;;;;;;;21.37;10.80;;;-4.40;99.90;;;;;;5010929;28;20958;-68
2022/12/12 02:41:58;;;;;;;23.53;9.60;;;-4.50;99.90;;;;;;5010550;28;20495;-68
2022/12/12 02:44:32;;;;;;;34.17;13.27;;;-4.50;99.90;;;;;;5010509;28;20955;-68
2022/12/12 02:47:23;;;;;;;26.50;10.90;;;-4.50;99.90;;;;;;5010838;28;20421;-68
2022/12/12 02:50:10;;;;;;;31.90;13.40;;;-4.50;99.90;;;;;;5010501;28;20418;-68
2022/12/12 02:52:35;;;;;;;28.60;12.50;;;-4.60;99.90;;;;;;5022151;28;20517;-68
2022/12/12 02:55:02;;;;;;;34.33;11.53;;;-4.70;99.90;;;;;;5007987;28;20983;-68
2022/12/12 02:57:28;;;;;;;23.67;10.60;;;-4.60;99.90;;;;;;5014921;28;20222;-68
2022/12/12 02:59:58;;;;;;;34.80;11.77;;;-4.60;99.90;;;;;;5010037;28;20450;-68
2022/12/12 03:02:52;;;;;;;26.73;11.90;;;-4.70;99.90;;;;;;5010155;28;20211;-68
2022/12/12 03:08:50;;;;;;;24.77;10.60;;;-4.80;99.90;;;;;;5010961;28;20799;-68
2022/12/12 03:11:42;;;;;;;25.27;10.90;;;-4.80;99.90;;;;;;5010985;28;20544;-68
2022/12/12 03:14:17;;;;;;;36.53;12.43;;;-4.80;99.90;;;;;;5010573;28;20429;-68
2022/12/12 03:17:04;;;;;;;25.07;12.10;;;-4.80;99.90;;;;;;5010764;28;20414;-68
2022/12/12 03:19:37;;;;;;;29.07;13.37;;;-4.90;99.90;;;;;;5009916;28;20963;-68
2022/12/12 03:22:26;;;;;;;31.57;13.53;;;-4.90;99.90;;;;;;4999160;28;20465;-68
2022/12/12 03:25:03;;;;;;;24.17;12.97;;;-4.80;99.90;;;;;;4990857;28;20468;-68
2022/12/12 03:27:50;;;;;;;24.60;12.37;;;-4.90;99.90;;;;;;5010839;28;20457;-68
2022/12/12 03:30:17;;;;;;;26.83;12.93;;;-4.90;99.90;;;;;;5013948;28;20406;-68
2022/12/12 03:33:05;;;;;;;33.73;14.50;;;-4.80;99.90;;;;;;5023613;28;20445;-68
2022/12/12 03:35:49;;;;;;;26.63;11.90;;;-4.70;99.90;;;;;;5014206;28;20426;-68
2022/12/12 03:38:25;;;;;;;31.13;14.03;;;-4.70;99.90;;;;;;5014331;28;20409;-68
2022/12/12 03:41:03;;;;;;;44.90;13.97;;;-4.70;99.90;;;;;;5013882;28;20504;-68
2022/12/12 03:43:34;;;;;;;46.40;13.33;;;-4.70;99.90;;;;;;5013627;28;20512;-68
2022/12/12 03:46:02;;;;;;;26.20;13.47;;;-4.70;99.90;;;;;;5014306;28;20414;-68
2022/12/12 03:48:39;;;;;;;32.10;12.80;;;-4.80;99.90;;;;;;5013619;28;20421;-68
2022/12/12 03:51:10;;;;;;;34.60;12.97;;;-4.90;99.90;;;;;;5014654;28;20493;-68
2022/12/12 03:53:57;;;;;;;31.10;14.53;;;-5.00;99.90;;;;;;5027106;28;20420;-68
2022/12/12 03:56:33;;;;;;;35.20;14.30;;;-5.00;99.90;;;;;;5014143;28;20428;-67
2022/12/12 03:59:02;;;;;;;33.17;14.83;;;-5.00;99.90;;;;;;5012462;28;20922;-68
2022/12/12 04:01:38;;;;;;;29.97;12.33;;;-5.00;99.90;;;;;;5013544;28;20468;-68
2022/12/12 04:04:41;;;;;;;34.83;12.10;;;-5.10;99.90;;;;;;5013125;28;20429;-68
2022/12/12 04:07:23;;;;;;;29.67;11.50;;;-5.10;99.90;;;;;;5013719;28;20446;-68
2022/12/12 04:15:51;;;;;;;26.83;12.10;;;-4.90;99.90;;;;;;5006099;28;20911;-68
2022/12/12 04:18:47;;;;;;;24.50;12.10;;;-4.80;99.90;;;;;;5012888;28;20456;-68
2022/12/12 04:24:36;;;;;;;32.47;13.77;;;-4.70;99.90;;;;;;5013338;28;20417;-68
2022/12/12 04:27:21;;;;;;;23.53;13.57;;;-4.60;99.90;;;;;;5013479;28;20897;-68
2022/12/12 04:29:59;;;;;;;26.83;11.73;;;-4.50;99.90;;;;;;5013697;28;20457;-68
2022/12/12 04:32:36;;;;;;;36.07;15.40;;;-4.50;99.90;;;;;;5014946;28;20450;-68
2022/12/12 04:35:22;;;;;;;24.00;11.07;;;-4.50;99.90;;;;;;5012787;28;20480;-68
2022/12/12 04:37:50;;;;;;;37.70;12.70;;;-4.40;99.90;;;;;;5013417;28;20430;-68
2022/12/12 04:40:29;;;;;;;30.07;12.40;;;-4.40;99.90;;;;;;5013470;28;20585;-68
2022/12/12 04:43:05;;;;;;;32.37;12.00;;;-4.30;99.90;;;;;;5012259;28;20457;-68
2022/12/12 04:45:35;;;;;;;28.30;12.93;;;-4.30;99.90;;;;;;5013107;28;20831;-68
2022/12/12 04:48:03;;;;;;;25.60;12.30;;;-4.30;99.90;;;;;;5012649;28;20415;-68
2022/12/12 04:50:31;;;;;;;30.00;12.80;;;-4.20;99.90;;;;;;5012715;28;21212;-68
2022/12/12 04:53:00;;;;;;;28.33;12.13;;;-4.10;99.90;;;;;;5027157;28;20435;-68
2022/12/12 04:55:31;;;;;;;29.90;12.70;;;-4.10;99.90;;;;;;5004558;28;20520;-68
2022/12/12 04:57:58;;;;;;;17.70;9.90;;;-4.10;99.90;;;;;;5021458;28;20429;-68
2022/12/12 05:00:27;;;;;;;25.50;12.27;;;-4.10;99.90;;;;;;5015259;28;20429;-68
2022/12/12 05:02:59;;;;;;;28.83;11.40;;;-4.10;99.90;;;;;;5011876;28;20603;-68
2022/12/12 05:05:55;;;;;;;25.87;12.13;;;-4.10;99.90;;;;;;5011760;28;20922;-68
2022/12/12 05:08:26;;;;;;;1.10;0.60;;;-4.10;99.90;;;;;;5012399;28;20461;-68
2022/12/12 05:10:58;;;;;;;10.57;5.37;;;-4.10;99.90;;;;;;5012418;28;20422;-68
2022/12/12 05:13:29;;;;;;;20.37;11.13;;;-4.00;99.90;;;;;;5011415;28;20430;-68
2022/12/12 05:15:57;;;;;;;28.87;11.43;;;-4.10;99.90;;;;;;5012626;28;20437;-68
2022/12/12 05:18:23;;;;;;;32.40;12.73;;;-4.10;99.90;;;;;;5011855;28;20473;-68
2022/12/12 05:20:49;;;;;;;29.13;11.80;;;-4.10;99.90;;;;;;5022600;28;20437;-68
2022/12/12 05:23:15;;;;;;;23.43;11.23;;;-4.10;99.90;;;;;;5014148;28;20237;-67
2022/12/12 05:25:41;;;;;;;21.87;11.50;;;-4.20;99.90;;;;;;5012732;28;20514;-67
2022/12/12 05:28:06;;;;;;;31.97;10.43;;;-4.20;99.90;;;;;;5012066;28;20194;-68
2022/12/12 05:30:32;;;;;;;28.43;13.50;;;-4.20;99.90;;;;;;5018587;28;20182;-69
2022/12/12 05:32:58;;;;;;;29.27;11.50;;;-4.20;99.90;;;;;;5017881;28;20191;-67
2022/12/12 05:35:24;;;;;;;26.17;10.00;;;-4.20;99.90;;;;;;5012318;28;20191;-69
2022/12/12 05:37:50;;;;;;;26.43;11.87;;;-4.20;99.90;;;;;;5012068;28;20191;-69
2022/12/12 05:40:15;;;;;;;28.80;12.40;;;-4.20;99.90;;;;;;5012144;28;20712;-69
2022/12/12 05:42:41;;;;;;;1.80;0.87;;;-4.20;99.90;;;;;;5011021;28;20465;-69
2022/12/12 05:45:09;;;;;;;3.83;1.07;;;-4.20;99.90;;;;;;5011681;28;20215;-69
2022/12/12 05:47:36;;;;;;;28.93;12.57;;;-4.30;99.90;;;;;;5010697;28;20350;-69
2022/12/12 05:50:02;;;;;;;24.87;11.80;;;-4.30;99.90;;;;;;5010507;28;20506;-69
2022/12/12 05:52:27;;;;;;;21.97;10.87;;;-4.30;99.90;;;;;;5022213;28;20611;-69
2022/12/12 05:54:53;;;;;;;22.50;9.73;;;-4.30;99.90;;;;;;5015192;28;20429;-69
2022/12/12 05:57:19;;;;;;;30.37;12.03;;;-4.30;99.90;;;;;;5010365;28;20675;-69
2022/12/12 05:59:45;;;;;;;28.57;11.63;;;-4.20;99.90;;;;;;5011360;28;20197;-69
2022/12/12 06:02:12;;;;;;;28.77;13.07;;;-4.20;99.90;;;;;;5011227;28;20295;-69
2022/12/12 06:04:38;;;;;;;26.53;10.73;;;-4.20;99.90;;;;;;5011085;28;20434;-69
2022/12/12 06:07:04;;;;;;;2.47;1.20;;;-4.20;99.90;;;;;;5011783;28;20429;-69
2022/12/12 06:09:30;;;;;;;33.20;12.00;;;-4.20;99.90;;;;;;5011402;28;20463;-69
2022/12/12 06:11:56;;;;;;;23.90;11.40;;;-4.30;99.90;;;;;;5011300;28;20437;-70
2022/12/12 06:14:21;;;;;;;23.10;11.33;;;-4.30;99.90;;;;;;5011147;28;20434;-69
2022/12/12 06:16:47;;;;;;;24.93;11.60;;;-4.30;99.90;;;;;;5011606;28;20218;-69
2022/12/12 06:19:12;;;;;;;1.00;0.50;;;-4.30;99.90;;;;;;5011125;28;20230;-69
2022/12/12 06:21:38;;;;;;;33.17;12.67;;;-4.30;99.90;;;;;;5023363;28;20651;-69
2022/12/12 06:24:07;;;;;;;31.83;12.13;;;-4.20;99.90;;;;;;5011316;28;20262;-69
2022/12/12 06:26:32;;;;;;;25.93;11.73;;;-4.20;99.90;;;;;;5011032;28;20270;-69
2022/12/12 06:28:58;;;;;;;47.20;14.97;;;-4.30;99.90;;;;;;5010268;28;20501;-69
2022/12/12 06:31:24;;;;;;;44.33;14.50;;;-4.20;99.90;;;;;;5028644;28;20208;-69
2022/12/12 06:33:50;;;;;;;27.50;11.53;;;-4.20;99.90;;;;;;5018153;28;20191;-69
2022/12/12 06:36:22;;;;;;;25.50;11.50;;;-4.20;99.90;;;;;;5010300;28;20434;-69
2022/12/12 06:38:49;;;;;;;28.77;10.70;;;-4.20;99.90;;;;;;5010430;28;20199;-69
2022/12/12 06:41:15;;;;;;;30.37;12.13;;;-4.20;99.90;;;;;;5011137;28;20580;-69
2022/12/12 06:43:41;;;;;;;30.63;11.10;;;-4.20;99.90;;;;;;5009464;28;20505;-69
2022/12/12 06:46:11;;;;;;;22.57;10.27;;;-4.20;99.90;;;;;;5010193;28;20376;-69
2022/12/12 06:48:36;;;;;;;23.93;11.03;;;-4.30;99.90;;;;;;5009916;28;20690;-69
2022/12/12 06:51:07;;;;;;;24.50;11.33;;;-4.20;99.90;;;;;;5010326;28;20430;-69
2022/12/12 06:53:33;;;;;;;25.10;11.93;;;-4.20;99.90;;;;;;5027750;28;20186;-69
2022/12/12 06:55:58;;;;;;;25.50;10.83;;;-4.20;99.90;;;;;;5007388;28;20874;-69
2022/12/12 06:58:24;;;;;;;23.33;10.93;;;-4.20;99.90;;;;;;5024015;28;20524;-70
2022/12/12 07:00:51;;;;;;;28.63;12.80;;;-4.20;99.90;;;;;;5009324;28;20187;-69
2022/12/12 07:03:17;;;;;;;29.67;12.10;;;-4.20;99.90;;;;;;5009345;28;20214;-69
2022/12/12 07:05:46;;;;;;;22.77;12.60;;;-4.20;99.90;;;;;;5010146;28;20418;-69
2022/12/12 07:08:13;;;;;;;29.63;12.30;;;-4.20;99.90;;;;;;5013328;28;20656;-69
2022/12/12 07:10:39;;;;;;;31.10;13.17;;;-4.20;99.90;;;;;;5014310;28;20890;-70
2022/12/12 07:13:05;;;;;;;28.43;11.37;;;-4.10;99.90;;;;;;5013267;28;20417;-69
2022/12/12 07:15:30;;;;;;;27.00;10.60;;;-4.10;99.90;;;;;;5013493;28;20522;-70
2022/12/12 07:17:56;;;;;;;1.40;0.70;;;-4.10;99.90;;;;;;5013059;28;20223;-70
2022/12/12 07:20:22;;;;;;;25.97;10.20;;;-4.20;99.90;;;;;;5016485;28;20588;-69
2022/12/12 07:22:47;;;;;;;12.20;5.40;;;-4.20;99.90;;;;;;4996627;28;20219;-69
2022/12/12 07:25:13;;;;;;;27.10;11.20;;;-4.20;99.90;;;;;;5010238;28;20184;-69
2022/12/12 07:27:40;;;;;;;23.10;10.63;;;-4.20;99.90;;;;;;5013499;28;20261;-69
2022/12/12 07:30:06;;;;;;;28.57;11.07;;;-4.20;99.90;;;;;;5015479;28;20410;-69
2022/12/12 07:32:31;;;;;;;22.23;10.20;;;-4.20;99.90;;;;;;5025171;28;20424;-69
2022/12/12 07:34:57;;;;;;;30.93;11.87;;;-4.20;99.90;;;;;;5013040;28;20815;-69
2022/12/12 07:37:22;;;;;;;23.33;10.77;;;-4.20;99.90;;;;;;5013621;28;20183;-70
2022/12/12 07:39:48;;;;;;;7.13;2.97;;;-4.20;99.90;;;;;;5009574;28;20258;-69
2022/12/12 07:42:13;;;;;;;19.77;10.50;;;-4.10;99.90;;;;;;5012768;28;20206;-69
2022/12/12 07:44:39;;;;;;;3.60;1.47;;;-4.10;99.90;;;;;;5013026;28;20182;-69
2022/12/12 07:47:05;;;;;;;28.57;11.70;;;-4.10;99.90;;;;;;5013121;28;20919;-69
2022/12/12 07:49:31;;;;;;;27.70;11.23;;;-4.10;99.90;;;;;;5012300;28;20230;-69
2022/12/12 07:51:57;;;;;;;21.47;9.90;;;-4.10;99.90;;;;;;5013001;28;20426;-69
2022/12/12 07:54:22;;;;;;;24.00;10.87;;;-4.10;99.90;;;;;;5013564;28;20707;-69
2022/12/12 07:56:48;;;;;;;31.70;12.40;;;-4.10;99.90;;;;;;5012020;28;20449;-69
2022/12/12 07:59:14;;;;;;;26.93;12.27;;;-4.20;99.90;;;;;;5008240;28;20190;-69
2022/12/12 08:01:39;;;;;;;20.40;10.77;;;-4.10;99.90;;;;;;5012382;28;20289;-67
2022/12/12 08:04:05;;;;;;;3.80;2.63;;;-4.10;99.90;;;;;;5012111;28;20215;-69
2022/12/12 08:06:31;;;;;;;22.27;10.90;;;-4.10;99.90;;;;;;5012526;28;20175;-69
2022/12/12 08:08:56;;;;;;;26.97;11.70;;;-4.00;99.90;;;;;;5012389;28;20171;-69
2022/12/12 08:11:23;;;;;;;27.43;12.50;;;-4.00;99.90;;;;;;5012222;28;20533;-69
2022/12/12 08:13:50;;;;;;;29.03;10.13;;;-4.00;99.90;;;;;;5010617;28;20187;-69
2022/12/12 08:16:18;;;;;;;22.13;10.57;;;-3.90;99.90;;;;;;5012153;28;20795;-69
2022/12/12 08:18:44;;;;;;;27.83;12.50;;;-3.80;99.90;;;;;;5010037;28;20496;-69
2022/12/12 08:21:12;;;;;;;36.77;11.93;;;-3.80;99.90;;;;;;5016370;28;20414;-69
2022/12/12 08:23:39;;;;;;;31.47;12.37;;;-3.80;99.90;;;;;;5021888;28;20434;-69
2022/12/12 08:26:08;;;;;;;27.87;11.30;;;-3.80;99.90;;;;;;5020056;28;21178;-69
2022/12/12 08:28:33;;;;;;;29.90;12.70;;;-3.70;99.90;;;;;;5012163;28;20426;-69
2022/12/12 08:30:59;;;;;;;23.13;10.50;;;-3.70;99.90;;;;;;5026583;28;20463;-68
2022/12/12 08:33:25;;;;;;;29.57;10.30;;;-3.70;99.90;;;;;;5017265;28;20194;-69
2022/12/12 08:35:51;;;;;;;25.23;10.90;;;-3.70;99.90;;;;;;5012728;28;20525;-69
2022/12/12 08:38:17;;;;;;;25.77;11.27;;;-3.80;99.90;;;;;;5012074;28;20899;-69
2022/12/12 08:40:42;;;;;;;24.63;10.17;;;-3.70;99.90;;;;;;5012360;28;20210;-69
2022/12/12 08:43:09;;;;;;;23.80;10.93;;;-3.70;99.90;;;;;;5011598;28;20640;-69
2022/12/12 08:45:36;;;;;;;19.73;9.77;;;-3.80;99.90;;;;;;5012435;28;20187;-69
2022/12/12 08:48:02;;;;;;;28.83;10.60;;;-3.70;99.90;;;;;;5011250;28;20417;-69
2022/12/12 08:50:28;;;;;;;20.10;9.50;;;-3.70;99.90;;;;;;5012118;28;20422;-68
2022/12/12 08:52:53;;;;;;;25.40;11.97;;;-3.70;99.90;;;;;;5011662;28;20777;-69
2022/12/12 08:55:19;;;;;;;33.23;10.47;;;-3.70;99.90;;;;;;5012312;28;20187;-69
2022/12/12 08:57:45;;;;;;;21.20;10.87;;;-3.70;99.90;;;;;;5011313;28;20593;-69
2022/12/12 09:00:11;;;;;;;22.13;10.10;;;-3.70;99.90;;;;;;5011301;28;20206;-69
2022/12/12 09:02:37;;;;;;;22.47;9.43;;;-3.60;99.90;;;;;;4998414;28;20718;-69
2022/12/12 09:05:02;;;;;;;19.90;9.13;;;-3.50;99.90;;;;;;5011512;28;20423;-69
2022/12/12 09:07:28;;;;;;;32.03;10.20;;;-3.50;99.90;;;;;;5012025;28;20191;-69
2022/12/12 09:09:54;;;;;;;24.60;9.97;;;-3.50;99.90;;;;;;5011466;28;20187;-69
2022/12/12 09:12:19;;;;;;;17.97;10.17;;;-3.50;99.90;;;;;;5011243;28;20191;-69
2022/12/12 09:14:45;;;;;;;22.20;10.40;;;-3.50;99.90;;;;;;5009026;28;20191;-68
2022/12/12 09:17:10;;;;;;;18.20;8.73;;;-3.50;99.90;;;;;;5010457;28;20195;-69
2022/12/12 09:19:36;;;;;;;26.07;9.63;;;-3.50;99.90;;;;;;5010654;28;20571;-68
2022/12/12 09:22:02;;;;;;;22.53;8.00;;;-3.40;99.90;;;;;;5012241;28;20217;-69
2022/12/12 09:24:28;;;;;;;22.53;8.77;;;-3.40;99.90;;;;;;5011397;28;20659;-69
2022/12/12 09:26:53;;;;;;;19.07;9.67;;;-3.20;99.90;;;;;;5011891;28;20422;-69
2022/12/12 09:29:19;;;;;;;23.73;9.50;;;-3.20;99.90;;;;;;5015790;28;20191;-69
2022/12/12 09:31:45;;;;;;;23.13;9.37;;;-3.00;99.90;;;;;;5018659;28;20549;-69
2022/12/12 09:34:10;;;;;;;27.17;9.83;;;-2.90;99.90;;;;;;5019873;28;20198;-69
2022/12/12 09:36:36;;;;;;;18.43;7.90;;;-2.90;99.90;;;;;;5011479;28;20226;-69
2022/12/12 09:39:02;;;;;;;24.20;8.13;;;-2.90;99.90;;;;;;5010814;28;20226;-68
2022/12/12 09:41:29;;;;;;;19.10;7.83;;;-2.80;99.90;;;;;;5010966;28;20210;-68
2022/12/12 09:44:06;;;;;;;19.63;8.60;;;-2.70;99.90;;;;;;5011154;28;20762;-69
2022/12/12 09:46:42;;;;;;;16.37;7.50;;;-2.70;99.90;;;;;;5010974;28;20426;-69
2022/12/12 09:49:23;;;;;;;19.13;7.90;;;-2.70;99.90;;;;;;5009581;28;20458;-69
2022/12/12 09:51:50;;;;;;;14.17;8.23;;;-2.70;99.90;;;;;;5010603;28;20414;-69
2022/12/12 09:54:19;;;;;;;20.37;8.30;;;-2.60;99.90;;;;;;5011147;28;20773;-69
2022/12/12 09:57:23;;;;;;;23.77;9.07;;;-2.70;99.90;;;;;;5010291;28;20476;-69
2022/12/12 09:59:55;;;;;;;1.40;0.60;;;-2.70;99.90;;;;;;4996798;28;20417;-68
2022/12/12 10:02:47;;;;;;;2.50;0.50;;;-2.70;99.90;;;;;;5009854;28;20465;-69
2022/12/12 10:05:43;;;;;;;1.83;0.90;;;-2.60;99.90;;;;;;5008640;28;20516;-68
2022/12/12 10:08:14;;;;;;;19.77;7.97;;;-2.50;99.90;;;;;;4999110;28;20501;-69
2022/12/12 10:10:48;;;;;;;1.57;0.73;;;-2.60;99.90;;;;;;5009910;28;20472;-69
2022/12/12 10:13:18;;;;;;;18.60;7.73;;;-2.70;99.90;;;;;;5009949;28;20421;-69
2022/12/12 10:15:49;;;;;;;17.00;8.30;;;-2.60;99.90;;;;;;5009739;28;20968;-69
2022/12/12 10:18:27;;;;;;;15.83;7.70;;;-2.60;99.90;;;;;;5008168;28;20820;-69
2022/12/12 10:20:58;;;;;;;22.80;8.30;;;-2.60;99.90;;;;;;5014426;28;20425;-69
2022/12/12 10:23:45;;;;;;;2.10;1.37;;;-2.60;99.90;;;;;;5003568;28;20476;-69
2022/12/12 10:26:23;;;;;;;16.23;7.30;;;-2.60;99.90;;;;;;5005762;28;20482;-69
2022/12/12 10:28:53;;;;;;;12.33;6.37;;;-2.40;99.90;;;;;;5009786;28;20493;-69
2022/12/12 10:31:38;;;;;;;15.60;7.57;;;-2.30;99.90;;;;;;5017805;28;20452;-69
2022/12/12 10:34:13;;;;;;;25.10;6.97;;;-2.20;99.90;;;;;;5005422;28;20418;-68
2022/12/12 10:37:00;;;;;;;12.27;5.83;;;-2.20;99.90;;;;;;5010034;28;20726;-69
2022/12/12 10:40:05;;;;;;;2.00;1.47;;;-2.10;99.90;;;;;;5009825;28;20432;-69
2022/12/12 10:42:58;;;;;;;4.83;4.33;;;-2.10;99.90;;;;;;4989559;28;20934;-69
2022/12/12 10:46:00;;;;;;;1.20;0.60;;;-2.20;99.90;;;;;;5005722;28;20449;-68
2022/12/12 10:48:28;;;;;;;2.17;1.03;;;-2.10;99.90;;;;;;5005275;28;20418;-69
2022/12/12 10:50:59;;;;;;;11.50;3.63;;;-2.10;99.90;;;;;;5009442;28;20426;-69
2022/12/12 10:53:26;;;;;;;2.20;1.00;;;-2.00;99.90;;;;;;5009820;28;20465;-69
2022/12/12 10:55:59;;;;;;;3.70;2.17;;;-1.90;99.90;;;;;;5009163;28;20519;-69
2022/12/12 10:58:34;;;;;;;12.20;6.43;;;-1.90;99.90;;;;;;5013778;28;20406;-69
2022/12/12 11:01:02;;;;;;;16.23;6.30;;;-1.90;99.90;;;;;;4997667;28;20886;-69
2022/12/12 11:03:48;;;;;;;14.77;6.90;;;-1.80;99.90;;;;;;5007267;28;20480;-69
2022/12/12 11:06:32;;;;;;;18.13;6.73;;;-1.70;99.90;;;;;;5009915;28;20425;-69
2022/12/12 11:09:27;;;;;;;14.63;6.83;;;-1.60;99.90;;;;;;5009531;28;20504;-69
2022/12/12 11:12:00;;;;;;;11.20;5.73;;;-1.60;99.90;;;;;;5004197;28;20438;-69
2022/12/12 11:14:35;;;;;;;1.27;0.80;;;-1.40;99.90;;;;;;5009614;28;20422;-69
2022/12/12 11:17:02;;;;;;;16.23;6.67;;;-1.30;99.90;;;;;;5008726;28;20417;-69
2022/12/12 11:19:36;;;;;;;11.53;6.10;;;-1.30;99.90;;;;;;5008809;28;20449;-69
2022/12/12 11:22:03;;;;;;;10.70;5.73;;;-1.10;99.90;;;;;;5005736;28;20560;-69
2022/12/12 11:24:31;;;;;;;10.70;5.17;;;-1.10;99.90;;;;;;5005865;28;20418;-69
2022/12/12 11:27:04;;;;;;;14.40;5.77;;;-1.30;99.90;;;;;;5010347;28;20417;-69
2022/12/12 11:29:43;;;;;;;2.07;0.70;;;-1.10;99.90;;;;;;5009113;28;20515;-69
2022/12/12 11:32:21;;;;;;;1.10;0.50;;;-1.00;99.90;;;;;;5024566;28;20904;-70
2022/12/12 11:34:52;;;;;;;17.50;6.23;;;-0.90;99.90;;;;;;5009007;28;20480;-69
2022/12/12 11:37:22;;;;;;;14.13;6.40;;;-0.90;99.90;;;;;;5009874;28;20418;-69
2022/12/12 11:39:53;;;;;;;7.53;4.40;;;-0.80;99.90;;;;;;5002955;28;20430;-70
2022/12/12 11:42:25;;;;;;;12.67;5.87;;;-0.80;99.90;;;;;;5008211;28;20524;-70
2022/12/12 11:45:03;;;;;;;15.87;6.10;;;-0.90;99.90;;;;;;5009240;28;20501;-69
2022/12/12 11:47:37;;;;;;;11.90;4.87;;;-0.80;99.90;;;;;;5009481;28;20436;-70
2022/12/12 11:50:24;;;;;;;11.77;4.17;;;-0.40;99.90;;;;;;5008135;28;20819;-69
2022/12/12 11:52:56;;;;;;;7.83;4.13;;;-0.40;99.90;;;;;;4996140;28;20422;-69
2022/12/12 11:55:29;;;;;;;9.93;3.93;;;-0.40;99.90;;;;;;5013105;28;20432;-69
2022/12/12 11:58:00;;;;;;;14.00;4.80;;;-0.60;99.90;;;;;;5012215;28;20472;-69
2022/12/12 12:00:38;;;;;;;9.00;4.03;;;-0.60;99.90;;;;;;5012871;28;20428;-69
2022/12/12 12:03:27;;;;;;;10.37;4.07;;;-0.40;99.90;;;;;;5008299;28;20484;-69
2022/12/12 12:06:02;;;;;;;12.00;4.20;;;-0.40;99.90;;;;;;5014972;28;20452;-69
2022/12/12 12:08:47;;;;;;;8.83;4.17;;;-0.40;99.90;;;;;;5005727;28;20472;-67
2022/12/12 12:11:27;;;;;;;11.80;4.20;;;-0.30;99.90;;;;;;5023991;28;20417;-65
2022/12/12 12:14:02;;;;;;;13.90;6.10;;;-0.20;99.90;;;;;;5011314;28;20440;-66
2022/12/12 12:16:40;;;;;;;33.00;11.43;;;-0.40;99.90;;;;;;5008967;28;20417;-67
2022/12/12 12:19:19;;;;;;;11.60;4.47;;;-0.40;99.60;;;;;;5011968;28;20980;-69
2022/12/12 12:22:00;;;;;;;9.27;3.17;;;-0.40;99.90;;;;;;5022954;28;20464;-69
2022/12/12 12:24:26;;;;;;;9.07;4.10;;;-0.40;99.90;;;;;;5006469;28;20463;-69
2022/12/12 12:27:17;;;;;;;5.77;2.70;;;-0.30;99.70;;;;;;5001936;28;20600;-69
2022/12/12 12:29:55;;;;;;;5.67;3.30;;;-0.40;99.60;;;;;;5010916;28;20440;-69
2022/12/12 12:32:39;;;;;;;11.30;3.07;;;-0.40;99.20;;;;;;5025371;28;20921;-69
2022/12/12 12:35:20;;;;;;;4.10;2.60;;;-0.30;99.10;;;;;;5011877;28;20418;-69
2022/12/12 12:38:00;;;;;;;8.40;3.20;;;-0.30;98.70;;;;;;5012081;28;20475;-69
2022/12/12 12:40:56;;;;;;;1.10;0.40;;;-0.10;99.10;;;;;;5010730;28;21280;-69
2022/12/12 12:43:48;;;;;;;9.00;3.37;;;0.00;98.20;;;;;;5011331;28;20461;-69
2022/12/12 12:46:14;;;;;;;4.50;2.20;;;-0.20;98.40;;;;;;5011687;28;20409;-69
2022/12/12 12:48:49;;;;;;;9.23;2.60;;;-0.10;98.50;;;;;;5010984;28;20513;-69
2022/12/12 12:51:28;;;;;;;9.10;3.70;;;-0.10;97.80;;;;;;5012027;28;20221;-69
2022/12/12 12:54:12;;;;;;;3.60;2.47;;;0.00;98.00;;;;;;5011165;28;20422;-69
2022/12/12 12:57:09;;;;;;;4.67;2.83;;;-0.10;97.70;;;;;;5011887;28;20418;-69
2022/12/12 12:59:44;;;;;;;8.50;3.27;;;-0.10;98.60;;;;;;5001111;28;20429;-69
2022/12/12 13:02:24;;;;;;;5.10;2.83;;;-0.10;97.50;;;;;;5011029;28;20959;-69
2022/12/12 13:05:05;;;;;;;6.30;3.20;;;-0.10;96.90;;;;;;5006123;28;20738;-69
2022/12/12 13:07:56;;;;;;;6.43;3.20;;;-0.20;96.90;;;;;;5000540;28;20667;-69
2022/12/12 13:10:26;;;;;;;4.33;2.20;;;-0.20;97.80;;;;;;5019275;28;20429;-69